Flugplatz Damme

Für EDWC sind keine METAR/TAF Berichte vorhanden.
Es werden die Flugwettermeldungen vom Flugplatz Diepholz Airport in 15 km Entfernung angezeigt.

Bericht für ETND

vom 17.09. um 13:20 UTC

Wind 12 kt aus 300°

Sichtweite 10 km oder mehr

Code: VCSH

gering bewölkt in 2500 ft

aufgebrochene Bewölkung in 4000 ft

Temperatur 15.0°C

Taupunkt 8.0°C

Luftfeuchtigkeit 63%

Luftdruck 1018 hPa

ETND 171320Z 30012KT 9999 VCSH FEW025TCU BKN040 15/08 Q1018 BLU

Prognose für ETND

vom 17.09. um 00:00 UTC

Zwischen 00:00 UTC und 00:00 UTC

Wind 12 kt aus 280° in Böen 22 kt

Sichtweite 10 km oder mehr

keine signifikanten Wettererscheinungen

aufgelockert bewölkt in 2000 ft

aufgebrochene Bewölkung in 5000 ft


Zwischen 00:00 UTC und 00:00 UTC zeitweise

Wind 25 kt aus 310° in Böen 40 kt

Sichtweite 4000 m

Regenschauer

aufgebrochene Bewölkung in 2000 ft

TAF ETND 171330Z 1713/1720 28012G22KT 9999 NSW SCT020 BKN050 TEMPO 1713/1717 31025G40KT 4000 SHRA BKN020TCU CANCEL 1330 BY ETGL
Impressum